Happy Valentine's Day! 

Flight Track Log - Related Links

Times and Time Zones

All times are in EDT time to prevent confusion due to time zone crossing. See the ASA250 flight status page for this flight to view local times or setup timezone preferences in your user account.


Time Position Orientation Groundspeed Altitude Reporting Facility
EDT Latitude Longitude Course Direction KTS MPH feet Rate Location/Type
Fri 11:17:13 AM 33.9333 -118.4667 217° Southwest 191 220 2,100  Level Southern California TRACON
Fri 11:18:28 AM 33.8708 -118.5225 217° Southwest 252 290 4,400 2,054 Climbing Los Angeles Center
Fri 11:19:42 AM 33.7942 -118.5361 188° South 278 320 7,200 2,559 Climbing Los Angeles Center
Fri 11:20:44 AM 33.7011 -118.5161 170° South 295 339 10,200 2,081 Climbing Los Angeles Center
Fri 11:21:46 AM 33.6675 -118.4194 113° Southeast 323 372 11,500 1,984 Climbing Los Angeles Center
Fri 11:22:48 AM 33.6394 -118.2833 104° East 356 410 14,300 2,419 Climbing Los Angeles Center
Fri 11:23:50 AM 33.6161 -118.1650 103° East 369 425 16,500 2,064 Climbing Los Angeles Center
Fri 11:24:53 AM 33.5911 -118.0406 104° East 381 438 18,600 1,872 Climbing Los Angeles Center
Fri 11:25:55 AM 33.5506 -117.9150 111° Southeast 401 461 20,400 1,984 Climbing Los Angeles Center
Fri 11:26:57 AM 33.4969 -117.7603 113° Southeast 419 482 22,700 1,839 Climbing Los Angeles Center
Fri 11:27:59 AM 33.4522 -117.6244 112° Southeast 437 503 24,200 1,452 Climbing Los Angeles Center
Fri 11:29:01 AM 33.4053 -117.4850 112° Southeast 451 519 25,700 1,403 Climbing Los Angeles Center
Fri 11:30:03 AM 33.3581 -117.3422 112° Southeast 462 532 27,100 1,344 Climbing Los Angeles Center
Fri 11:31:06 AM 33.3100 -117.1975 112° Southeast 470 541 28,500 1,306 Climbing Los Angeles Center
Fri 11:32:07 AM 33.2522 -117.0294 112° Southeast 477 549 29,800 1,220 Climbing Los Angeles Center
Fri 11:33:09 AM 33.2019 -116.8800 112° Southeast 485 558 31,000 1,152 Climbing Los Angeles Center
Fri 11:34:12 AM 33.1517 -116.7292 112° Southeast 488 562 32,200 1,016 Climbing Los Angeles Center
Fri 11:35:13 AM 33.1117 -116.6092 112° Southeast 489 563 33,100 919 Climbing Los Angeles Center
Fri 11:36:16 AM 33.0503 -116.4231 111° Southeast 492 566 34,100 864 Climbing Los Angeles Center
Fri 11:37:18 AM 32.9986 -116.2669 111° Southeast 505 581 34,900 435 Climbing Los Angeles Center
Fri 11:38:20 AM 32.9414 -116.1122 114° Southeast 500 575 35,000 48 Climbing Los Angeles Center
Fri 11:39:22 AM 32.8775 -115.9300 113° Southeast 494 568 35,000  Level Los Angeles Center
Fri 11:40:24 AM 32.8239 -115.7794 113° Southeast 493 567 35,000  Level Los Angeles Center
Fri 11:41:26 AM 32.7711 -115.6281 112° Southeast 495 570 35,000  Level Los Angeles Center
Fri 11:42:28 AM 32.7172 -115.4772 113° Southeast 497 572 35,000  Level Los Angeles Center
Fri 11:43:30 AM 32.6633 -115.3256 113° Southeast 499 574 35,000  Level Los Angeles Center
Fri 11:45:00 AM 32.5550 -115.1396 134° Southeast  Level FlightAware Approximate
Fri 11:52:00 AM 31.9337 -114.3724 134° Southeast  Level FlightAware Approximate
Fri 11:53:00 AM 31.8445 -114.2636 134° Southeast  Level FlightAware Approximate
Fri 11:54:00 AM 31.7553 -114.1552 134° Southeast  Level FlightAware Approximate
Fri 11:55:00 AM 31.6659 -114.0469 134° Southeast  Level FlightAware Approximate
Fri 11:56:00 AM 31.5765 -113.9388 134° Southeast  Level FlightAware Approximate
Fri 11:57:00 AM 31.4871 -113.8308 134° Southeast  Level FlightAware Approximate
Fri 11:58:00 AM 31.3977 -113.7228 134° Southeast  Level FlightAware Approximate
Fri 11:59:00 AM 31.3083 -113.6151 134° Southeast  Level FlightAware Approximate
Fri 12:00:00 PM 31.2187 -113.5075 134° Southeast  Level FlightAware Approximate
Fri 12:01:00 PM 31.1291 -113.4002 134° Southeast  Level FlightAware Approximate
Fri 12:02:00 PM 31.0394 -113.2930 134° Southeast  Level FlightAware Approximate
Fri 12:03:00 PM 30.9496 -113.1861 134° Southeast  Level FlightAware Approximate
Fri 12:04:00 PM 30.8597 -113.0793 134° Southeast  Level FlightAware Approximate
Fri 12:05:00 PM 30.7698 -112.9727 134° Southeast  Level FlightAware Approximate
Fri 12:06:00 PM 30.6797 -112.8664 135° Southeast  Level FlightAware Approximate
Fri 12:07:00 PM 30.5896 -112.7602 135° Southeast  Level FlightAware Approximate
Fri 12:08:00 PM 30.5007 -112.6527 133° Southeast  Level FlightAware Approximate
Fri 12:09:00 PM 30.4121 -112.5450 136° Southeast  Level FlightAware Approximate
Fri 12:10:00 PM 30.3195 -112.4420 136° Southeast  Level FlightAware Approximate
Fri 12:11:00 PM 30.2278 -112.3382 135° Southeast  Level FlightAware Approximate
Fri 12:12:00 PM 30.1371 -112.2331 135° Southeast  Level FlightAware Approximate
Fri 12:13:00 PM 30.0463 -112.1283 135° Southeast  Level FlightAware Approximate
Fri 12:14:00 PM 29.9554 -112.0236 135° Southeast  Level FlightAware Approximate
Fri 12:15:00 PM 29.8645 -111.9192 135° Southeast  Level FlightAware Approximate
Fri 12:16:00 PM 29.7735 -111.8149 135° Southeast  Level FlightAware Approximate
Fri 12:17:00 PM 29.6824 -111.7108 135° Southeast  Level FlightAware Approximate
Fri 12:18:00 PM 29.5912 -111.6069 135° Southeast  Level FlightAware Approximate
Fri 12:19:00 PM 29.4999 -111.5032 135° Southeast  Level FlightAware Approximate
Fri 12:20:00 PM 29.4086 -111.3997 135° Southeast  Level FlightAware Approximate
Fri 12:21:00 PM 29.3172 -111.2964 135° Southeast  Level FlightAware Approximate
Fri 12:22:00 PM 29.2257 -111.1932 135° Southeast  Level FlightAware Approximate
Fri 12:23:00 PM 29.1341 -111.0902 136° Southeast  Level FlightAware Approximate
Fri 12:24:00 PM 29.0434 -110.9863 134° Southeast  Level FlightAware Approximate
Fri 12:25:00 PM 28.9541 -110.8810 134° Southeast  Level FlightAware Approximate
Fri 12:26:00 PM 28.8646 -110.7759 134° Southeast  Level FlightAware Approximate
Fri 12:27:00 PM 28.7750 -110.6710 134° Southeast  Level FlightAware Approximate
Fri 12:28:00 PM 28.6854 -110.5662 134° Southeast  Level FlightAware Approximate
Fri 12:29:00 PM 28.5957 -110.4617 135° Southeast  Level FlightAware Approximate
Fri 12:30:00 PM 28.5055 -110.3578 135° Southeast  Level FlightAware Approximate
Fri 12:31:00 PM 28.4152 -110.2541 135° Southeast  Level FlightAware Approximate
Fri 12:32:00 PM 28.3248 -110.1505 135° Southeast  Level FlightAware Approximate
Fri 12:33:00 PM 28.2344 -110.0471 135° Southeast  Level FlightAware Approximate
Fri 12:34:00 PM 28.1439 -109.9439 135° Southeast  Level FlightAware Approximate
Fri 12:35:00 PM 28.0532 -109.8409 135° Southeast  Level FlightAware Approximate
Fri 12:36:00 PM 27.9626 -109.7380 135° Southeast  Level FlightAware Approximate
Fri 12:37:00 PM 27.8718 -109.6353 135° Southeast  Level FlightAware Approximate
Fri 12:38:00 PM 27.7810 -109.5328 135° Southeast  Level FlightAware Approximate
Fri 12:39:00 PM 27.6927 -109.4276 133° Southeast  Level FlightAware Approximate
Fri 12:40:00 PM 27.6047 -109.3221 133° Southeast  Level FlightAware Approximate
Fri 12:41:00 PM 27.5167 -109.2167 133° Southeast  Level FlightAware Approximate
Fri 12:42:00 PM 27.4260 -109.1144 135° Southeast  Level FlightAware Approximate
Fri 12:43:00 PM 27.3352 -109.0123 135° Southeast  Level FlightAware Approximate
Fri 12:44:00 PM 27.2443 -108.9104 136° Southeast  Level FlightAware Approximate
Fri 12:45:00 PM 27.1525 -108.8096 136° Southeast  Level FlightAware Approximate
Fri 12:46:00 PM 27.0605 -108.7090 136° Southeast  Level FlightAware Approximate
Fri 12:47:00 PM 26.9686 -108.6086 136° Southeast  Level FlightAware Approximate
Fri 12:48:00 PM 26.8765 -108.5083 136° Southeast  Level FlightAware Approximate
Fri 12:49:00 PM 26.7844 -108.4082 136° Southeast  Level FlightAware Approximate
Fri 12:50:00 PM 26.6937 -108.3067 125° Southeast  Level FlightAware Approximate
Fri 12:51:00 PM 26.6194 -108.1897 125° Southeast  Level FlightAware Approximate
Fri 12:52:00 PM 26.5450 -108.0727 125° Southeast  Level FlightAware Approximate
Fri 12:53:00 PM 26.4705 -107.9560 125° Southeast  Level FlightAware Approximate
Fri 12:54:00 PM 26.3944 -107.8406 126° Southeast  Level FlightAware Approximate
Fri 12:55:00 PM 26.3181 -107.7254 126° Southeast  Level FlightAware Approximate
Fri 12:56:00 PM 26.2417 -107.6104 127° Southeast  Level FlightAware Approximate
Fri 12:57:00 PM 26.1652 -107.4956 127° Southeast  Level FlightAware Approximate
Fri 12:58:00 PM 26.0886 -107.3809 127° Southeast  Level FlightAware Approximate
Fri 12:59:00 PM 26.0120 -107.2663 127° Southeast  Level FlightAware Approximate
Fri 01:00:00 PM 25.9352 -107.1519 127° Southeast  Level FlightAware Approximate
Fri 01:01:00 PM 25.8582 -107.0378 128° Southeast  Level FlightAware Approximate
Fri 01:02:00 PM 25.7794 -106.9253 128° Southeast  Level FlightAware Approximate
Fri 01:03:00 PM 25.7054 -106.8090 124° Southeast  Level FlightAware Approximate
Fri 01:04:00 PM 25.6332 -106.6913 126° Southeast  Level FlightAware Approximate
Fri 01:05:00 PM 25.5570 -106.5768 126° Southeast  Level FlightAware Approximate
Fri 01:06:00 PM 25.4807 -106.4624 126° Southeast  Level FlightAware Approximate
Fri 01:07:00 PM 25.4042 -106.3483 127° Southeast  Level FlightAware Approximate
Fri 01:08:00 PM 25.3272 -106.2347 127° Southeast  Level FlightAware Approximate
Fri 01:09:00 PM 25.2501 -106.1213 127° Southeast  Level FlightAware Approximate
Fri 01:10:00 PM 25.1729 -106.0080 127° Southeast  Level FlightAware Approximate
Fri 01:11:00 PM 25.0942 -105.8960 129° Southeast  Level FlightAware Approximate
Fri 01:12:00 PM 25.0139 -105.7855 129° Southeast  Level FlightAware Approximate
Fri 01:13:00 PM 24.9336 -105.6751 129° Southeast  Level FlightAware Approximate
Fri 01:14:00 PM 24.8543 -105.5639 125° Southeast  Level FlightAware Approximate
Fri 01:15:00 PM 24.7806 -105.4481 125° Southeast  Level FlightAware Approximate
Fri 01:16:00 PM 24.7036 -105.3352 128° Southeast  Level FlightAware Approximate
Fri 01:17:00 PM 24.6242 -105.2243 128° Southeast  Level FlightAware Approximate
Fri 01:18:00 PM 24.5446 -105.1135 128° Southeast  Level FlightAware Approximate
Fri 01:19:00 PM 24.4650 -105.0029 128° Southeast  Level FlightAware Approximate
Fri 01:20:00 PM 24.3853 -104.8924 128° Southeast  Level FlightAware Approximate
Fri 01:21:00 PM 24.3061 -104.7816 128° Southeast  Level FlightAware Approximate
Fri 01:22:00 PM 24.2270 -104.6708 128° Southeast  Level FlightAware Approximate
Fri 01:23:00 PM 24.1478 -104.5601 128° Southeast  Level FlightAware Approximate
Fri 01:24:00 PM 24.0707 -104.4477 126° Southeast  Level FlightAware Approximate
Fri 01:25:00 PM 23.9951 -104.3342 126° Southeast  Level FlightAware Approximate
Fri 01:26:00 PM 23.9195 -104.2207 126° Southeast  Level FlightAware Approximate
Fri 01:27:00 PM 23.8438 -104.1073 126° Southeast  Level FlightAware Approximate
Fri 01:28:00 PM 23.7695 -103.9930 125° Southeast  Level FlightAware Approximate
Fri 01:29:00 PM 23.6958 -103.8782 125° Southeast  Level FlightAware Approximate
Fri 01:30:00 PM 23.6221 -103.7635 125° Southeast  Level FlightAware Approximate
Fri 01:31:00 PM 23.5483 -103.6490 125° Southeast  Level FlightAware Approximate
Fri 01:32:00 PM 23.4724 -103.5361 127° Southeast  Level FlightAware Approximate
Fri 01:33:00 PM 23.3949 -103.4247 127° Southeast  Level FlightAware Approximate
Fri 01:34:00 PM 23.3173 -103.3133 127° Southeast  Level FlightAware Approximate
Fri 01:35:00 PM 23.2397 -103.2020 127° Southeast  Level FlightAware Approximate
Fri 01:36:00 PM 23.1620 -103.0909 127° Southeast  Level FlightAware Approximate
Fri 01:37:00 PM 23.0852 -102.9791 126° Southeast  Level FlightAware Approximate
Fri 01:38:00 PM 23.0088 -102.8671 126° Southeast  Level FlightAware Approximate
Fri 01:39:00 PM 22.9324 -102.7551 127° Southeast  Level FlightAware Approximate
Fri 01:40:00 PM 22.8510 -102.6478 135° Southeast  Level FlightAware Approximate
Fri 01:41:00 PM 22.7608 -102.5487 135° Southeast  Level FlightAware Approximate
Fri 01:42:00 PM 22.6706 -102.4498 135° Southeast  Level FlightAware Approximate
Fri 01:43:00 PM 22.5803 -102.3510 135° Southeast  Level FlightAware Approximate
Fri 01:44:00 PM 22.4899 -102.2524 135° Southeast  Level FlightAware Approximate
Fri 01:45:00 PM 22.3995 -102.1538 135° Southeast  Level FlightAware Approximate
Fri 01:46:00 PM 22.3099 -102.0545 134° Southeast  Level FlightAware Approximate
Fri 01:47:00 PM 22.2213 -101.9541 134° Southeast  Level FlightAware Approximate
Fri 01:48:00 PM 22.1327 -101.8539 134° Southeast  Level FlightAware Approximate
Fri 01:49:00 PM 22.0441 -101.7538 134° Southeast  Level FlightAware Approximate
Fri 01:50:00 PM 21.9553 -101.6538 134° Southeast  Level FlightAware Approximate
Fri 01:51:00 PM 21.8665 -101.5539 134° Southeast  Level FlightAware Approximate
Fri 01:52:00 PM 21.7778 -101.4541 134° Southeast  Level FlightAware Approximate
Fri 01:53:00 PM 21.6889 -101.3544 134° Southeast  Level FlightAware Approximate
Fri 01:54:00 PM 21.5997 -101.2552 134° Southeast  Level FlightAware Approximate
Fri 01:55:00 PM 21.5084 -101.1583 137° Southeast  Level FlightAware Approximate
Fri 01:56:00 PM 21.4144 -101.0644 137° Southeast  Level FlightAware Approximate
Fri 01:57:00 PM 21.3246 -100.9660 134° Southeast  Level FlightAware Approximate
Fri 01:58:00 PM 21.2354 -100.8669 134° Southeast  Level FlightAware Approximate
Fri 01:59:00 PM 21.1463 -100.7679 134° Southeast  Level FlightAware Approximate
Fri 02:00:00 PM 21.0563 -100.6698 135° Southeast  Level FlightAware Approximate
Fri 02:01:00 PM 20.9656 -100.5726 135° Southeast  Level FlightAware Approximate
Fri 02:02:00 PM 20.8749 -100.4754 135° Southeast  Level FlightAware Approximate
Fri 02:03:00 PM 20.7883 -100.3746 145° Southeast  Level FlightAware Approximate
Fri 02:04:00 PM 20.6920 -100.2851 132° Southeast  Level FlightAware Approximate
Fri 02:05:00 PM 20.6126 -100.1785 132° Southeast  Level FlightAware Approximate
Fri 02:06:00 PM 20.5278 -100.0756 127° Southeast  Level FlightAware Approximate
Fri 02:07:00 PM 20.4501 -99.9667 127° Southeast  Level FlightAware Approximate
Fri 02:08:00 PM 20.3722 -99.8578 127° Southeast  Level FlightAware Approximate
Fri 02:09:00 PM 20.2895 -99.7532 130° Southeast  Level FlightAware Approximate
Fri 02:10:00 PM 20.2062 -99.6491 130° Southeast  Level FlightAware Approximate
Fri 02:11:00 PM 20.1230 -99.5451 130° Southeast  Level FlightAware Approximate
Fri 02:12:00 PM 20.0396 -99.4412 130° Southeast  Level FlightAware Approximate
Fri 02:13:00 PM 19.9647 -99.3303 125° Southeast  Level FlightAware Approximate
Fri 02:14:00 PM 19.8904 -99.2199 133° Southeast  Level FlightAware Approximate
Fri 02:15:00 PM 19.8029 -99.1200 133° Southeast  Level FlightAware Approximate
Fri 02:16:00 PM 19.7249 -99.0188 193° South  Level FlightAware Approximate
Fri 02:17:00 PM 19.5981 -99.0333 180° South  Level FlightAware Approximate
Fri 02:18:00 PM 19.4718 -99.0556 191° South  Level FlightAware Approximate
Fri 02:19:00 PM 19.4363 -99.0721 191° South  Level Estimated
Fri 02:20:00 PM 19.4363 -99.0721 191° South  Level Estimated
Fri 02:21:00 PM 19.4363 -99.0721 191° South  Level Estimated
Fri 02:22:00 PM 19.4363 -99.0721 191° South  Level Estimated
Fri 02:23:00 PM 19.4363 -99.0721 191° South  Level Estimated
Fri 02:24:00 PM 19.4363 -99.0721 191° South  Level Estimated
Fri 02:25:00 PM 19.4363 -99.0721 191° South  Level Estimated
Fri 02:26:00 PM 19.4363 -99.0721 191° South  Level Estimated
Fri 02:27:00 PM 19.4363 -99.0721 191° South  Level Estimated
Fri 02:28:00 PM 19.4363 -99.0721 191° South  Level Estimated
Fri 02:29:00 PM 19.4363 -99.0721 191° South  Level Estimated
Fri 02:30:00 PM 19.4363 -99.0721 191° South  Level Estimated
Fri 02:31:00 PM 19.4363 -99.0721 191° South  Level Estimated

Login

Don't have an account? Register now (free) for customized features, flight alerts, and more!